Time;durP1;ratioP1;P1;durP2;ratioP2;P2;SDS_P1;SDS_P2;PMS_P1;PMS_P2;Temp;Humidity;BMP_temperature;BMP_pressure;BME280_temperature;BME280_humidity;BME280_pressure;Samples;Min_cycle;Max_cycle;Signal;HPM_P1;HPM_P2
2021/09/17 00:01:14;;;;;;;7.20;5.77;;;16.60;99.90;;;;;;5019033;28;20485;-71
2021/09/17 00:03:40;;;;;;;10.03;7.60;;;16.50;99.90;;;;;;5022105;28;21013;-71
2021/09/17 00:06:05;;;;;;;7.30;6.60;;;16.40;99.90;;;;;;5013857;28;20472;-69
2021/09/17 00:08:31;;;;;;;10.70;6.90;;;16.30;99.90;;;;;;5021949;28;20586;-68
2021/09/17 00:10:57;;;;;;;8.60;7.50;;;16.30;99.90;;;;;;4999627;28;20229;-71
2021/09/17 00:13:23;;;;;;;8.23;6.87;;;16.20;99.90;;;;;;5014529;28;20248;-69
2021/09/17 00:15:49;;;;;;;7.47;6.23;;;16.10;99.90;;;;;;5021744;28;20217;-71
2021/09/17 00:18:15;;;;;;;7.60;6.83;;;16.10;99.90;;;;;;5005304;28;20497;-71
2021/09/17 00:20:41;;;;;;;7.30;6.60;;;16.00;99.90;;;;;;5017394;28;20464;-70
2021/09/17 00:23:07;;;;;;;8.47;7.00;;;16.00;99.90;;;;;;5008018;28;20225;-71
2021/09/17 00:25:33;;;;;;;9.43;7.33;;;15.90;99.90;;;;;;5006659;28;20821;-71
2021/09/17 00:27:59;;;;;;;9.43;6.60;;;15.90;99.90;;;;;;5015710;28;20304;-71
2021/09/17 00:30:28;;;;;;;9.30;6.83;;;15.90;99.90;;;;;;5019005;28;21056;-72
2021/09/17 00:32:57;;;;;;;10.10;7.50;;;15.90;99.90;;;;;;5017091;28;20212;-71
2021/09/17 00:35:23;;;;;;;7.50;6.67;;;16.00;99.90;;;;;;5021631;28;20895;-71
2021/09/17 00:37:49;;;;;;;6.27;5.67;;;16.00;99.90;;;;;;5040316;28;20602;-71
2021/09/17 00:40:15;;;;;;;8.60;5.83;;;16.00;99.90;;;;;;5018640;28;20212;-71
2021/09/17 00:42:40;;;;;;;6.50;5.60;;;15.90;99.90;;;;;;5018875;28;20236;-70
2021/09/17 00:45:09;;;;;;;6.63;5.93;;;16.00;99.90;;;;;;4991203;28;20217;-70
2021/09/17 00:47:36;;;;;;;9.50;5.97;;;16.00;99.90;;;;;;5023996;28;20213;-71
2021/09/17 00:50:04;;;;;;;10.00;6.00;;;16.00;99.90;;;;;;5005530;28;20456;-71
2021/09/17 00:52:30;;;;;;;6.90;6.07;;;16.00;99.90;;;;;;5002235;28;20970;-71
2021/09/17 00:54:56;;;;;;;8.47;5.27;;;15.90;99.90;;;;;;4987738;28;20444;-71
2021/09/17 00:57:22;;;;;;;7.23;6.00;;;15.90;99.90;;;;;;4995920;28;20572;-70
2021/09/17 00:59:48;;;;;;;6.87;5.10;;;15.90;99.90;;;;;;4996205;28;20217;-71
2021/09/17 01:02:13;;;;;;;5.93;5.07;;;15.90;99.90;;;;;;5012669;28;20572;-71
2021/09/17 01:04:40;;;;;;;6.33;5.73;;;15.90;99.90;;;;;;5005984;28;20227;-70
2021/09/17 01:07:05;;;;;;;6.67;5.70;;;15.90;99.90;;;;;;4993521;28;20212;-70
2021/09/17 01:09:32;;;;;;;7.53;6.40;;;15.90;99.90;;;;;;5021730;28;20463;-71
2021/09/17 01:12:03;;;;;;;8.43;5.57;;;15.90;99.90;;;;;;5037053;28;20239;-71
2021/09/17 01:14:31;;;;;;;11.93;5.23;;;15.90;99.90;;;;;;5003542;28;20455;-71
2021/09/17 01:16:57;;;;;;;5.60;5.10;;;15.90;99.90;;;;;;5019325;28;20899;-71
2021/09/17 01:19:22;;;;;;;5.60;5.00;;;16.00;99.90;;;;;;5014285;28;20471;-71
2021/09/17 01:21:57;;;;;;;6.20;5.60;;;16.00;99.90;;;;;;5011456;28;20211;-70
2021/09/17 01:24:23;;;;;;;6.53;5.83;;;16.00;99.90;;;;;;5026770;28;20298;-72
2021/09/17 01:26:49;;;;;;;6.77;5.10;;;15.90;99.90;;;;;;5023790;28;20460;-71
2021/09/17 01:29:15;;;;;;;7.27;5.87;;;15.90;99.90;;;;;;5008886;28;20208;-71
2021/09/17 01:31:41;;;;;;;7.37;5.47;;;15.90;99.90;;;;;;5025655;28;20299;-71
2021/09/17 01:34:08;;;;;;;5.40;4.50;;;15.90;99.90;;;;;;5010534;28;20574;-70
2021/09/17 01:36:34;;;;;;;5.77;5.07;;;15.90;99.90;;;;;;5005137;28;20300;-71
2021/09/17 01:38:59;;;;;;;5.80;5.20;;;15.90;99.90;;;;;;5011116;28;20550;-70
2021/09/17 01:41:25;;;;;;;6.00;5.10;;;15.90;99.90;;;;;;5027161;28;20212;-71
2021/09/17 01:43:51;;;;;;;6.07;5.23;;;15.90;99.90;;;;;;5020297;28;20226;-70
2021/09/17 01:46:16;;;;;;;5.10;4.60;;;15.90;99.90;;;;;;5024850;28;20307;-71
2021/09/17 01:48:42;;;;;;;5.37;4.83;;;15.90;99.90;;;;;;5025493;28;20221;-70
2021/09/17 01:51:08;;;;;;;10.30;5.03;;;15.80;99.90;;;;;;5026471;28;20307;-70
2021/09/17 01:53:34;;;;;;;7.43;5.43;;;15.80;99.90;;;;;;5028050;28;20220;-71
2021/09/17 01:56:00;;;;;;;5.93;4.80;;;15.80;99.90;;;;;;5028323;28;20774;-70
2021/09/17 01:58:26;;;;;;;4.93;4.43;;;15.80;99.90;;;;;;5007791;28;20452;-71
2021/09/17 02:00:52;;;;;;;4.87;4.37;;;15.80;99.90;;;;;;5012641;28;20463;-70
2021/09/17 02:03:18;;;;;;;7.60;4.90;;;15.80;99.90;;;;;;5011878;28;20459;-70
2021/09/17 02:05:43;;;;;;;4.97;4.47;;;15.80;99.90;;;;;;5022103;28;20241;-70
2021/09/17 02:08:09;;;;;;;5.93;5.03;;;15.80;99.90;;;;;;5024740;28;20581;-70
2021/09/17 02:10:35;;;;;;;6.13;5.40;;;15.80;99.90;;;;;;5025265;28;20278;-69
2021/09/17 02:13:02;;;;;;;10.33;5.20;;;15.80;99.90;;;;;;5024761;28;20979;-71
2021/09/17 02:15:28;;;;;;;7.30;6.50;;;15.80;99.90;;;;;;5023571;28;20456;-69
2021/09/17 02:17:54;;;;;;;6.60;5.90;;;15.80;99.90;;;;;;5026009;28;20462;-71
2021/09/17 02:20:19;;;;;;;6.20;5.60;;;15.70;99.90;;;;;;5020129;28;20705;-71
2021/09/17 02:22:45;;;;;;;6.80;5.87;;;15.70;99.90;;;;;;5027034;28;20227;-70
2021/09/17 02:25:11;;;;;;;6.30;4.87;;;15.70;99.90;;;;;;5027339;28;20266;-71
2021/09/17 02:27:37;;;;;;;6.63;5.20;;;15.70;99.90;;;;;;5030651;28;20243;-70
2021/09/17 02:30:05;;;;;;;5.17;4.67;;;15.70;99.90;;;;;;5010666;28;20214;-70
2021/09/17 02:32:30;;;;;;;7.63;5.47;;;15.70;99.90;;;;;;5016584;28;20279;-70
2021/09/17 02:34:56;;;;;;;5.50;5.00;;;15.70;99.90;;;;;;5010430;28;20451;-70
2021/09/17 02:37:22;;;;;;;6.97;6.00;;;15.70;99.90;;;;;;5022224;28;20248;-71
2021/09/17 02:39:47;;;;;;;6.53;5.90;;;15.70;99.90;;;;;;5013698;28;20232;-70
2021/09/17 02:42:13;;;;;;;5.73;5.13;;;15.70;99.90;;;;;;5021812;28;20700;-70
2021/09/17 02:44:38;;;;;;;6.90;6.20;;;15.70;99.90;;;;;;5025366;28;20225;-71
2021/09/17 02:47:04;;;;;;;7.13;5.13;;;15.70;99.90;;;;;;5022724;28;20276;-70
2021/09/17 02:49:33;;;;;;;6.73;5.23;;;15.70;99.90;;;;;;5024345;28;20217;-71
2021/09/17 02:51:59;;;;;;;6.10;5.50;;;15.70;99.90;;;;;;5008677;28;20774;-70
2021/09/17 02:54:25;;;;;;;6.10;5.50;;;15.70;99.90;;;;;;5029393;28;20835;-68
2021/09/17 02:56:51;;;;;;;5.90;5.33;;;15.70;99.90;;;;;;5030827;28;20459;-70
2021/09/17 02:59:17;;;;;;;6.77;5.70;;;15.70;99.90;;;;;;5027569;28;20213;-71
2021/09/17 03:01:42;;;;;;;6.03;4.90;;;15.60;99.90;;;;;;5013260;28;20746;-71
2021/09/17 03:04:08;;;;;;;6.07;5.40;;;15.70;99.90;;;;;;5027460;28;20217;-71
2021/09/17 03:06:34;;;;;;;5.87;5.13;;;15.70;99.90;;;;;;5044692;28;20292;-71
2021/09/17 03:08:59;;;;;;;6.17;5.00;;;15.70;99.90;;;;;;5010741;28;20747;-71
2021/09/17 03:11:25;;;;;;;7.20;5.60;;;15.70;99.90;;;;;;5014932;28;20256;-71
2021/09/17 03:13:50;;;;;;;5.70;4.87;;;15.70;99.90;;;;;;5026333;28;20282;-71
2021/09/17 03:16:16;;;;;;;5.80;5.20;;;15.60;99.90;;;;;;5026164;28;20251;-71
2021/09/17 03:18:42;;;;;;;6.50;5.60;;;15.60;99.90;;;;;;5026762;28;20288;-71
2021/09/17 03:21:08;;;;;;;14.57;5.63;;;15.60;99.90;;;;;;5011497;28;20217;-70
2021/09/17 03:23:33;;;;;;;7.47;5.60;;;15.60;99.90;;;;;;5032735;28;20224;-71
2021/09/17 03:25:59;;;;;;;6.53;5.00;;;15.60;99.90;;;;;;5020039;28;20217;-69
2021/09/17 03:28:24;;;;;;;5.80;5.17;;;15.60;99.90;;;;;;5006866;28;20244;-71
2021/09/17 03:30:50;;;;;;;6.63;5.50;;;15.60;99.90;;;;;;5005786;28;20604;-71
2021/09/17 03:33:16;;;;;;;7.80;5.23;;;15.60;99.90;;;;;;4990199;28;20273;-70
2021/09/17 03:35:43;;;;;;;6.63;5.83;;;15.60;99.90;;;;;;5007138;28;20227;-70
2021/09/17 03:38:09;;;;;;;6.10;5.40;;;15.60;99.90;;;;;;5027555;28;20227;-70
2021/09/17 03:40:36;;;;;;;5.33;4.83;;;15.60;99.90;;;;;;5012178;28;20447;-69
2021/09/17 03:43:03;;;;;;;6.93;5.87;;;15.60;99.90;;;;;;5028392;28;20351;-71
2021/09/17 03:45:31;;;;;;;5.73;5.20;;;15.60;99.90;;;;;;5024852;28;20447;-70
2021/09/17 03:48:07;;;;;;;8.50;4.90;;;15.60;99.90;;;;;;5010336;28;20474;-71
2021/09/17 03:50:33;;;;;;;5.60;5.00;;;15.60;99.90;;;;;;5008262;28;20479;-70
2021/09/17 03:52:59;;;;;;;7.10;5.43;;;15.60;99.90;;;;;;5023968;28;20493;-71
2021/09/17 03:55:25;;;;;;;6.40;5.77;;;15.60;99.90;;;;;;5027900;28;20448;-69
2021/09/17 03:57:51;;;;;;;7.70;5.87;;;15.60;99.90;;;;;;5010469;28;20305;-71
2021/09/17 04:00:16;;;;;;;6.10;5.50;;;15.60;99.90;;;;;;5011310;28;20239;-71
2021/09/17 04:02:42;;;;;;;6.90;5.80;;;15.60;99.90;;;;;;5010058;28;20220;-71
2021/09/17 04:05:08;;;;;;;6.63;5.90;;;15.60;99.90;;;;;;5026245;28;20227;-70
2021/09/17 04:07:41;;;;;;;7.53;5.90;;;15.60;99.90;;;;;;5024116;28;20212;-70
2021/09/17 04:10:09;;;;;;;6.60;5.20;;;15.60;99.90;;;;;;5010271;28;20303;-70
2021/09/17 04:12:35;;;;;;;6.33;5.60;;;15.60;99.90;;;;;;5024259;28;20451;-71
2021/09/17 04:15:01;;;;;;;6.60;5.90;;;15.50;99.90;;;;;;5026359;28;20602;-71
2021/09/17 04:17:27;;;;;;;6.37;5.00;;;15.50;99.90;;;;;;5008431;28;20253;-71
2021/09/17 04:19:53;;;;;;;7.97;5.13;;;15.50;99.90;;;;;;5025860;28;20529;-71
2021/09/17 04:22:18;;;;;;;6.60;5.30;;;15.50;99.90;;;;;;5029254;28;20249;-71
2021/09/17 04:24:44;;;;;;;6.13;5.40;;;15.50;99.90;;;;;;5027075;28;20265;-71
2021/09/17 04:27:10;;;;;;;5.93;5.33;;;15.40;99.90;;;;;;5011281;28;20212;-71
2021/09/17 04:29:36;;;;;;;6.33;5.50;;;15.40;99.90;;;;;;5013121;28;20208;-71
2021/09/17 04:32:02;;;;;;;5.93;5.07;;;15.40;99.90;;;;;;5025170;28;20220;-70
2021/09/17 04:34:28;;;;;;;6.57;5.97;;;15.40;99.90;;;;;;5008397;28;20216;-70
2021/09/17 04:36:54;;;;;;;7.00;6.10;;;15.30;99.90;;;;;;5023193;28;20470;-71
2021/09/17 04:39:20;;;;;;;6.83;5.77;;;15.30;99.90;;;;;;5025428;28;20212;-71
2021/09/17 04:41:46;;;;;;;6.80;6.00;;;15.30;99.90;;;;;;5021923;28;20231;-71
2021/09/17 04:44:11;;;;;;;7.27;6.00;;;15.30;99.90;;;;;;5010824;28;20460;-70
2021/09/17 04:46:37;;;;;;;7.57;6.70;;;15.30;99.90;;;;;;5026702;28;20636;-70
2021/09/17 04:49:03;;;;;;;5.57;5.07;;;15.30;99.90;;;;;;5013577;28;20239;-71
2021/09/17 04:51:30;;;;;;;8.27;5.97;;;15.30;99.90;;;;;;5025539;28;20282;-70
2021/09/17 04:53:56;;;;;;;5.93;5.33;;;15.40;99.90;;;;;;5022640;28;20220;-70
2021/09/17 04:56:21;;;;;;;7.23;5.23;;;15.40;99.90;;;;;;5004181;28;20466;-70
2021/09/17 04:58:47;;;;;;;7.93;6.20;;;15.40;99.90;;;;;;5009998;28;20735;-71
2021/09/17 05:01:12;;;;;;;5.60;5.10;;;15.40;99.90;;;;;;5009714;28;20287;-70
2021/09/17 05:03:38;;;;;;;6.90;5.20;;;15.40;99.90;;;;;;5023072;28;20778;-71
2021/09/17 05:06:04;;;;;;;7.53;5.10;;;15.30;99.90;;;;;;5024439;28;20681;-71
2021/09/17 05:08:29;;;;;;;6.60;6.00;;;15.30;99.90;;;;;;5023322;28;20253;-71
2021/09/17 05:10:55;;;;;;;5.40;4.67;;;15.30;99.90;;;;;;5025469;28;20229;-71
2021/09/17 05:13:21;;;;;;;5.57;4.83;;;15.40;99.90;;;;;;4988585;28;20229;-71
2021/09/17 05:15:46;;;;;;;5.73;5.17;;;15.40;99.90;;;;;;5005693;28;20256;-71
2021/09/17 05:18:12;;;;;;;28.83;6.00;;;15.40;99.90;;;;;;5025105;28;20217;-70
2021/09/17 05:20:37;;;;;;;5.60;5.10;;;15.40;99.90;;;;;;5009338;28;20244;-70
2021/09/17 05:23:03;;;;;;;5.90;5.10;;;15.40;99.90;;;;;;5019329;28;20612;-71
2021/09/17 05:25:29;;;;;;;8.57;5.43;;;15.40;99.90;;;;;;5001970;28;20632;-69
2021/09/17 05:27:54;;;;;;;6.60;5.73;;;15.30;99.90;;;;;;4989867;28;20235;-70
2021/09/17 05:30:20;;;;;;;5.90;5.30;;;15.30;99.90;;;;;;4991801;28;20217;-71
2021/09/17 05:32:46;;;;;;;7.73;5.20;;;15.30;99.90;;;;;;5012579;28;20232;-71
2021/09/17 05:35:12;;;;;;;8.20;6.67;;;15.30;99.90;;;;;;5009001;28;20213;-71
2021/09/17 05:37:37;;;;;;;6.30;5.20;;;15.30;99.90;;;;;;5010375;28;20589;-71
2021/09/17 05:40:05;;;;;;;6.63;5.70;;;15.30;99.90;;;;;;4979964;28;20309;-71
2021/09/17 05:42:30;;;;;;;8.90;6.43;;;15.30;99.90;;;;;;5027123;28;20223;-71
2021/09/17 05:44:56;;;;;;;5.90;5.30;;;15.30;99.90;;;;;;4998001;28;20449;-71
2021/09/17 05:47:22;;;;;;;6.93;4.93;;;15.30;99.90;;;;;;4991509;28;20737;-71
2021/09/17 05:49:48;;;;;;;5.83;5.00;;;15.30;99.90;;;;;;5000304;28;20291;-71
2021/09/17 05:52:13;;;;;;;5.53;5.03;;;15.30;99.90;;;;;;5010674;28;20224;-71
2021/09/17 05:54:40;;;;;;;5.00;4.50;;;15.30;99.90;;;;;;5014632;28;20230;-71
2021/09/17 05:57:06;;;;;;;6.10;5.50;;;15.30;99.90;;;;;;5029146;28;20220;-71
2021/09/17 05:59:32;;;;;;;6.83;5.13;;;15.30;99.90;;;;;;5019758;28;20448;-71
2021/09/17 06:01:57;;;;;;;6.73;6.03;;;15.30;99.90;;;;;;5018415;28;20481;-71
2021/09/17 06:04:23;;;;;;;7.80;6.50;;;15.20;99.90;;;;;;5000897;28;20214;-71
2021/09/17 06:06:48;;;;;;;6.97;6.27;;;15.30;99.90;;;;;;5005992;28;20788;-71
2021/09/17 06:09:14;;;;;;;7.03;6.43;;;15.30;99.90;;;;;;4993101;28;20225;-71
2021/09/17 06:11:40;;;;;;;7.23;6.53;;;15.20;99.90;;;;;;4991215;28;20693;-70
2021/09/17 06:14:06;;;;;;;7.20;6.60;;;15.30;99.90;;;;;;4998551;28;20221;-70
2021/09/17 06:16:33;;;;;;;6.43;5.83;;;15.20;99.90;;;;;;5010658;28;20217;-71
2021/09/17 06:19:03;;;;;;;5.20;4.70;;;15.30;99.90;;;;;;5011423;28;20229;-71
2021/09/17 06:21:31;;;;;;;5.17;4.47;;;15.30;99.90;;;;;;4993900;28;20456;-71
2021/09/17 06:23:57;;;;;;;6.03;5.30;;;15.20;99.90;;;;;;5003285;28;20841;-71
2021/09/17 06:26:23;;;;;;;6.53;5.57;;;15.30;99.90;;;;;;4990749;28;20505;-71
2021/09/17 06:28:48;;;;;;;6.23;5.60;;;15.20;99.90;;;;;;5007051;28;20488;-71
2021/09/17 06:31:15;;;;;;;9.83;6.13;;;15.30;99.90;;;;;;4998592;28;20218;-71
2021/09/17 06:33:40;;;;;;;6.93;6.00;;;15.20;99.90;;;;;;4983916;28;20318;-71
2021/09/17 06:36:06;;;;;;;6.73;5.50;;;15.20;99.90;;;;;;4994212;28;20583;-71
2021/09/17 06:38:32;;;;;;;7.87;5.97;;;15.30;99.90;;;;;;5018260;28;20224;-71
2021/09/17 06:40:58;;;;;;;6.83;5.10;;;15.30;99.90;;;;;;5010489;28;20221;-71
2021/09/17 06:43:23;;;;;;;7.70;6.47;;;15.20;99.90;;;;;;5010125;28;20229;-71
2021/09/17 06:45:49;;;;;;;10.07;6.80;;;15.30;99.90;;;;;;5011959;28;20225;-71
2021/09/17 06:48:17;;;;;;;6.47;5.67;;;15.20;99.90;;;;;;5006227;28;20225;-70
2021/09/17 06:50:43;;;;;;;7.20;5.90;;;15.20;99.90;;;;;;4997614;28;20236;-71
2021/09/17 06:53:09;;;;;;;8.40;6.37;;;15.20;99.90;;;;;;5023091;28;20464;-71
2021/09/17 06:55:34;;;;;;;7.07;6.37;;;15.30;99.90;;;;;;5012804;28;20213;-71
2021/09/17 06:58:03;;;;;;;6.40;5.80;;;15.30;99.90;;;;;;5007848;28;20220;-71
2021/09/17 07:00:30;;;;;;;6.47;5.87;;;15.30;99.90;;;;;;5015130;28;20308;-71
2021/09/17 07:02:57;;;;;;;5.67;5.10;;;15.30;99.90;;;;;;5002680;28;20459;-71
2021/09/17 07:05:24;;;;;;;6.83;5.60;;;15.20;99.90;;;;;;5015037;28;20460;-71
2021/09/17 07:07:50;;;;;;;5.87;5.37;;;15.20;99.90;;;;;;5007916;28;21019;-71
2021/09/17 07:10:17;;;;;;;6.80;6.10;;;15.30;99.90;;;;;;5010798;28;20472;-71
2021/09/17 07:12:44;;;;;;;5.90;5.00;;;15.30;99.90;;;;;;5011725;28;20887;-71
2021/09/17 07:15:12;;;;;;;6.47;5.83;;;15.30;99.90;;;;;;5029820;28;20974;-71
2021/09/17 07:17:39;;;;;;;6.60;5.87;;;15.30;99.90;;;;;;5045329;28;20451;-71
2021/09/17 07:20:05;;;;;;;6.20;5.60;;;15.40;99.90;;;;;;5013006;28;20539;-71
2021/09/17 07:22:30;;;;;;;9.03;6.23;;;15.40;99.90;;;;;;5028065;28;20916;-71
2021/09/17 07:24:57;;;;;;;6.70;5.50;;;15.40;99.90;;;;;;5008595;28;20627;-71
2021/09/17 07:27:22;;;;;;;8.13;6.00;;;15.40;99.90;;;;;;5011410;28;20304;-71
2021/09/17 07:29:48;;;;;;;6.50;5.50;;;15.50;99.90;;;;;;5012756;28;20594;-72
2021/09/17 07:32:14;;;;;;;7.17;5.70;;;15.50;99.90;;;;;;4992027;28;20229;-70
2021/09/17 07:34:40;;;;;;;9.57;5.73;;;15.50;99.90;;;;;;5010358;28;20228;-71
2021/09/17 07:37:05;;;;;;;7.03;6.10;;;15.50;99.90;;;;;;5012622;28;20728;-71
2021/09/17 07:39:31;;;;;;;6.80;5.57;;;15.50;99.90;;;;;;5008592;28;20224;-71
2021/09/17 07:41:57;;;;;;;6.70;5.30;;;15.50;99.90;;;;;;5024924;28;20240;-71
2021/09/17 07:44:23;;;;;;;5.87;5.27;;;15.50;99.90;;;;;;5028156;28;20654;-71
2021/09/17 07:46:48;;;;;;;5.60;5.10;;;15.60;99.90;;;;;;5012482;28;20231;-71
2021/09/17 07:49:14;;;;;;;5.63;5.10;;;15.60;99.90;;;;;;5002038;28;20597;-71
2021/09/17 07:51:40;;;;;;;5.67;5.10;;;15.70;99.90;;;;;;5012373;28;20236;-70
2021/09/17 07:54:05;;;;;;;5.77;5.23;;;15.70;99.90;;;;;;5006810;28;20271;-71
2021/09/17 07:56:31;;;;;;;6.20;5.33;;;15.80;99.90;;;;;;4989600;28;20221;-69
2021/09/17 07:58:57;;;;;;;6.23;5.10;;;15.90;99.90;;;;;;5005205;28;20237;-71
2021/09/17 08:01:22;;;;;;;7.33;5.20;;;15.90;99.90;;;;;;5006115;28;20224;-70
2021/09/17 08:03:48;;;;;;;7.00;5.47;;;16.00;99.90;;;;;;5000469;28;20222;-71
2021/09/17 08:06:14;;;;;;;8.07;5.57;;;16.00;99.90;;;;;;5012323;28;20691;-72
2021/09/17 08:08:41;;;;;;;5.43;4.90;;;16.10;99.90;;;;;;5022019;28;20749;-71
2021/09/17 08:11:06;;;;;;;6.53;5.90;;;16.20;99.90;;;;;;5003831;28;20495;-71
2021/09/17 08:13:32;;;;;;;6.97;5.77;;;16.20;99.90;;;;;;5019116;28;20472;-71
2021/09/17 08:15:58;;;;;;;5.83;5.23;;;16.20;99.90;;;;;;5010685;28;20212;-71
2021/09/17 08:18:25;;;;;;;5.83;5.23;;;16.30;99.90;;;;;;5008727;28;20228;-71
2021/09/17 08:20:53;;;;;;;6.67;5.97;;;16.40;99.90;;;;;;5013753;28;20540;-71
2021/09/17 08:23:20;;;;;;;6.50;5.70;;;16.40;99.90;;;;;;5014897;28;20464;-71
2021/09/17 08:25:54;;;;;;;6.50;5.90;;;16.50;99.90;;;;;;5032939;28;20831;-72
2021/09/17 08:28:21;;;;;;;6.80;5.20;;;16.50;99.90;;;;;;5015014;28;20468;-71
2021/09/17 08:30:47;;;;;;;6.87;6.20;;;16.60;99.90;;;;;;5028133;28;20498;-71
2021/09/17 08:33:15;;;;;;;6.03;5.43;;;16.60;99.90;;;;;;5004762;28;20551;-71
2021/09/17 08:35:46;;;;;;;5.83;5.07;;;16.70;99.90;;;;;;5023658;28;20464;-71
2021/09/17 08:38:12;;;;;;;7.50;5.50;;;16.70;99.90;;;;;;5012500;28;20453;-71
2021/09/17 08:40:38;;;;;;;5.20;4.67;;;16.70;99.90;;;;;;5029693;28;20455;-71
2021/09/17 08:43:04;;;;;;;5.67;5.13;;;16.80;99.90;;;;;;5028053;28;20302;-72
2021/09/17 08:45:31;;;;;;;5.40;4.90;;;16.80;99.90;;;;;;4997726;28;20229;-69
2021/09/17 08:48:00;;;;;;;7.03;4.90;;;16.90;99.90;;;;;;4994214;28;20256;-71
2021/09/17 08:50:30;;;;;;;5.40;4.73;;;17.00;99.90;;;;;;4991729;28;20502;-72
2021/09/17 08:52:55;;;;;;;5.67;5.07;;;17.00;99.90;;;;;;4984360;28;20468;-71
2021/09/17 08:55:22;;;;;;;5.90;5.30;;;17.10;99.90;;;;;;4993294;28;20516;-72
2021/09/17 08:57:49;;;;;;;6.40;5.80;;;17.10;99.90;;;;;;5016757;28;20456;-71
2021/09/17 09:00:27;;;;;;;6.00;5.50;;;17.20;99.90;;;;;;5019146;28;20236;-71
2021/09/17 09:02:57;;;;;;;8.70;5.70;;;17.30;99.90;;;;;;5011729;28;20493;-72
2021/09/17 09:05:38;;;;;;;5.83;5.30;;;17.40;99.90;;;;;;5043579;28;20452;-71
2021/09/17 09:08:05;;;;;;;5.60;5.00;;;17.50;99.90;;;;;;5024354;28;20879;-72
2021/09/17 09:10:32;;;;;;;6.33;5.13;;;17.60;99.90;;;;;;5019724;28;20509;-72
2021/09/17 09:13:05;;;;;;;6.20;5.60;;;17.70;99.90;;;;;;5044790;28;20463;-72
2021/09/17 09:15:32;;;;;;;7.10;4.87;;;17.80;99.90;;;;;;5011704;28;20461;-70
2021/09/17 09:18:06;;;;;;;6.20;5.00;;;17.80;99.90;;;;;;4993443;28;20991;-72
2021/09/17 09:20:34;;;;;;;6.90;5.37;;;17.90;99.90;;;;;;4988759;28;20453;-72
2021/09/17 09:23:19;;;;;;;5.90;5.27;;;17.90;99.90;;;;;;4986299;28;20464;-72
2021/09/17 09:25:54;;;;;;;6.03;5.00;;;17.90;99.90;;;;;;4987956;28;20453;-71
2021/09/17 09:28:26;;;;;;;7.47;4.43;;;17.90;99.90;;;;;;4989208;28;20444;-71
2021/09/17 09:30:52;;;;;;;5.13;4.10;;;18.00;99.90;;;;;;5007661;28;20475;-71
2021/09/17 09:33:32;;;;;;;5.73;5.10;;;18.10;99.90;;;;;;4988538;28;20591;-71
2021/09/17 09:36:06;;;;;;;5.30;4.80;;;18.20;99.90;;;;;;4975522;28;20453;-72
2021/09/17 09:38:48;;;;;;;5.40;3.90;;;18.20;99.90;;;;;;4981069;28;20476;-71
2021/09/17 09:41:17;;;;;;;6.17;4.87;;;18.30;99.90;;;;;;4977782;28;20523;-72
2021/09/17 09:43:52;;;;;;;4.40;4.00;;;18.30;99.90;;;;;;5018185;28;20468;-72
2021/09/17 09:46:28;;;;;;;6.03;5.43;;;18.40;99.90;;;;;;4997961;28;20468;-72
2021/09/17 09:49:01;;;;;;;5.33;4.73;;;18.50;99.90;;;;;;4993328;28;20467;-71
2021/09/17 09:51:28;;;;;;;5.83;5.23;;;18.60;99.90;;;;;;4999558;28;20457;-72
2021/09/17 09:53:54;;;;;;;5.40;4.90;;;18.70;99.90;;;;;;4994359;28;20463;-72
2021/09/17 09:56:21;;;;;;;6.83;4.50;;;18.70;99.90;;;;;;5008119;28;20500;-70
2021/09/17 09:58:49;;;;;;;5.17;4.67;;;18.70;99.90;;;;;;5014238;28;20460;-72
2021/09/17 10:01:20;;;;;;;7.00;4.30;;;18.70;99.90;;;;;;5024573;28;20451;-71
2021/09/17 10:03:46;;;;;;;5.10;4.60;;;18.80;99.90;;;;;;5007592;28;20452;-71
2021/09/17 10:06:16;;;;;;;6.40;5.30;;;18.80;99.90;;;;;;5020449;28;20447;-71
2021/09/17 10:08:42;;;;;;;7.77;5.43;;;19.00;99.90;;;;;;5008273;28;20467;-71
2021/09/17 10:11:08;;;;;;;5.20;4.70;;;19.00;99.90;;;;;;5004861;28;20905;-71
2021/09/17 10:13:34;;;;;;;8.67;5.80;;;19.00;99.90;;;;;;5028330;28;20217;-71
2021/09/17 10:16:00;;;;;;;4.87;4.20;;;19.10;99.90;;;;;;5029503;28;20451;-72
2021/09/17 10:18:27;;;;;;;8.70;5.27;;;19.20;99.90;;;;;;5028172;28;20262;-71
2021/09/17 10:20:53;;;;;;;5.10;4.60;;;19.20;99.90;;;;;;5008931;28;20463;-71
2021/09/17 10:23:39;;;;;;;6.93;5.70;;;19.30;99.90;;;;;;5010143;28;20526;-71
2021/09/17 10:26:10;;;;;;;7.80;5.83;;;19.30;99.90;;;;;;5028912;28;20294;-71
2021/09/17 10:29:02;;;;;;;11.03;5.73;;;19.40;99.90;;;;;;5008206;28;20467;-71
2021/09/17 10:31:41;;;;;;;5.57;5.00;;;19.40;99.90;;;;;;5021320;28;20455;-72
2021/09/17 10:34:36;;;;;;;5.10;4.60;;;19.50;99.90;;;;;;5012138;28;20460;-72
2021/09/17 10:37:04;;;;;;;7.30;5.73;;;19.50;99.90;;;;;;5029124;28;20447;-71
2021/09/17 10:39:31;;;;;;;6.13;5.33;;;19.60;99.90;;;;;;5026870;28;20447;-71
2021/09/17 10:42:15;;;;;;;6.73;6.13;;;19.70;99.90;;;;;;5011814;28;20482;-71
2021/09/17 10:45:09;;;;;;;7.63;6.10;;;19.70;99.90;;;;;;5019534;28;20506;-71
2021/09/17 10:47:40;;;;;;;6.93;6.23;;;19.80;99.90;;;;;;5011492;28;20455;-71
2021/09/17 10:50:07;;;;;;;7.57;6.23;;;19.80;99.90;;;;;;5008201;28;20464;-70
2021/09/17 10:52:41;;;;;;;5.00;4.43;;;19.80;99.90;;;;;;5026249;28;20491;-71
2021/09/17 10:55:08;;;;;;;5.67;4.97;;;19.80;99.90;;;;;;5008617;28;20470;-71
2021/09/17 10:58:12;;;;;;;5.00;4.60;;;19.90;99.90;;;;;;5040493;28;20458;-71
2021/09/17 11:01:00;;;;;;;5.00;4.23;;;19.90;99.90;;;;;;5016094;28;20459;-69
2021/09/17 11:03:48;;;;;;;4.77;4.37;;;19.90;99.90;;;;;;5008539;28;20452;-70
2021/09/17 11:06:29;;;;;;;4.60;4.30;;;20.00;99.90;;;;;;4989530;28;20464;-72
2021/09/17 11:08:57;;;;;;;5.23;3.70;;;20.10;99.90;;;;;;4994307;28;20491;-70
2021/09/17 11:11:27;;;;;;;7.97;5.90;;;20.20;99.90;;;;;;4987357;28;20523;-70
2021/09/17 11:13:56;;;;;;;6.73;4.23;;;20.30;99.90;;;;;;5008882;28;20539;-71
2021/09/17 11:16:23;;;;;;;5.37;4.80;;;20.30;99.90;;;;;;5009547;28;20987;-72
2021/09/17 11:19:00;;;;;;;4.63;4.20;;;20.30;99.90;;;;;;5010647;28;20868;-71
2021/09/17 11:21:27;;;;;;;6.37;5.70;;;20.40;99.90;;;;;;4999683;28;20989;-72
2021/09/17 11:23:53;;;;;;;7.07;6.37;;;20.40;99.90;;;;;;5014991;28;20455;-72
2021/09/17 11:26:33;;;;;;;6.77;5.00;;;20.40;99.90;;;;;;5034536;28;20474;-71
2021/09/17 11:29:05;;;;;;;5.40;4.30;;;20.40;99.90;;;;;;5026169;28;20278;-72
2021/09/17 11:31:34;;;;;;;5.40;4.90;;;20.40;99.90;;;;;;5018994;28;20468;-71
2021/09/17 11:34:02;;;;;;;4.53;4.10;;;20.40;99.90;;;;;;5043957;28;20466;-72
2021/09/17 11:36:39;;;;;;;5.87;5.30;;;20.50;99.90;;;;;;5016157;28;20495;-71
2021/09/17 11:39:21;;;;;;;5.60;5.07;;;20.60;99.90;;;;;;5006544;28;20460;-72
2021/09/17 11:41:57;;;;;;;8.03;4.47;;;20.70;99.90;;;;;;5025511;28;20521;-72
2021/09/17 11:44:46;;;;;;;5.50;4.27;;;20.60;99.90;;;;;;5011138;28;20494;-72
2021/09/17 11:47:26;;;;;;;5.03;4.27;;;20.70;99.90;;;;;;5008725;28;20464;-72
2021/09/17 11:50:08;;;;;;;6.90;3.37;;;20.70;99.90;;;;;;5002926;28;20457;-72
2021/09/17 11:52:44;;;;;;;3.40;3.10;;;20.90;99.90;;;;;;5000039;28;20862;-72
2021/09/17 11:55:13;;;;;;;3.63;3.27;;;21.00;99.90;;;;;;4988634;28;20511;-69
2021/09/17 11:57:42;;;;;;;4.20;3.90;;;21.10;99.90;;;;;;5018821;28;20456;-73
2021/09/17 12:00:13;;;;;;;3.10;2.90;;;21.20;99.90;;;;;;5008054;28;20494;-71
2021/09/17 12:02:40;;;;;;;2.97;2.77;;;21.30;99.90;;;;;;5007216;28;20464;-72
2021/09/17 12:05:09;;;;;;;3.80;3.40;;;21.40;99.90;;;;;;5028710;28;20448;-72
2021/09/17 12:07:36;;;;;;;4.97;3.30;;;21.50;99.90;;;;;;5012297;28;20459;-71
2021/09/17 12:10:16;;;;;;;3.77;3.27;;;21.50;99.90;;;;;;5011365;28;20448;-71
2021/09/17 12:12:44;;;;;;;2.63;2.43;;;21.70;99.90;;;;;;5030909;28;20472;-72
2021/09/17 12:15:11;;;;;;;7.50;3.50;;;21.80;99.90;;;;;;5002498;28;20467;-71
2021/09/17 12:17:51;;;;;;;5.67;3.77;;;22.00;99.90;;;;;;5012125;28;20459;-71
2021/09/17 12:20:17;;;;;;;3.10;2.90;;;22.00;99.90;;;;;;5026552;28;20467;-72
2021/09/17 12:22:47;;;;;;;3.07;2.87;;;22.10;99.90;;;;;;5023001;28;20473;-71
2021/09/17 12:25:18;;;;;;;3.37;3.17;;;22.20;99.90;;;;;;5028182;28;20239;-72
2021/09/17 12:27:54;;;;;;;3.13;2.83;;;22.20;99.90;;;;;;5028462;28;20462;-72
2021/09/17 12:30:20;;;;;;;2.60;2.40;;;22.20;99.90;;;;;;5003604;28;20985;-72
2021/09/17 12:33:07;;;;;;;2.50;2.40;;;22.20;99.90;;;;;;5005007;28;20474;-72
2021/09/17 12:35:33;;;;;;;2.97;2.73;;;22.30;99.90;;;;;;5003465;28;20221;-71
2021/09/17 12:37:59;;;;;;;2.80;2.60;;;22.40;99.90;;;;;;5020700;28;20475;-72
2021/09/17 12:40:30;;;;;;;2.73;2.63;;;22.40;99.90;;;;;;4998950;28;20270;-72
2021/09/17 12:43:03;;;;;;;3.47;3.13;;;22.50;99.90;;;;;;5008184;28;20252;-72
2021/09/17 12:45:30;;;;;;;3.27;3.00;;;22.50;99.90;;;;;;5011996;28;20511;-72
2021/09/17 12:48:03;;;;;;;2.73;2.53;;;22.30;99.90;;;;;;4987102;28;20456;-71
2021/09/17 12:50:44;;;;;;;3.40;2.90;;;22.10;99.90;;;;;;5004592;28;20529;-72